Time;durP1;ratioP1;P1;durP2;ratioP2;P2;SDS_P1;SDS_P2;PMS_P1;PMS_P2;Temp;Humidity;BMP_temperature;BMP_pressure;BME280_temperature;BME280_humidity;BME280_pressure;Samples;Min_cycle;Max_cycle;Signal;HPM_P1;HPM_P2
2023/12/08 00:02:09;;;;;;;23.20;19.83;;;;;;;2.35;100.00;96116.34;5078068;28;20234;-54
2023/12/08 00:04:36;;;;;;;25.10;20.70;;;;;;;2.34;100.00;96106.84;5076157;28;20217;-53
2023/12/08 00:07:02;;;;;;;25.03;21.03;;;;;;;2.37;100.00;96109.28;5076147;28;20204;-53
2023/12/08 00:09:29;;;;;;;25.40;21.00;;;;;;;2.31;100.00;96109.69;5075830;28;20210;-52
2023/12/08 00:11:56;;;;;;;25.97;21.13;;;;;;;2.34;100.00;96114.69;5076776;28;20318;-54
2023/12/08 00:14:24;;;;;;;28.00;21.97;;;;;;;2.37;100.00;96097.03;5076651;28;20206;-54
2023/12/08 00:16:50;;;;;;;26.33;20.80;;;;;;;2.40;100.00;96098.63;5077417;28;20533;-53
2023/12/08 00:19:18;;;;;;;24.53;21.13;;;;;;;2.34;100.00;96099.03;5075972;28;20597;-52
2023/12/08 00:21:44;;;;;;;25.70;21.00;;;;;;;2.30;100.00;96093.19;5076653;28;20529;-54
2023/12/08 00:24:12;;;;;;;25.17;20.40;;;;;;;2.30;100.00;96092.38;5077026;28;20216;-54
2023/12/08 00:26:38;;;;;;;24.80;19.90;;;;;;;2.32;100.00;96104.38;5076925;28;20210;-54
2023/12/08 00:29:05;;;;;;;24.93;20.13;;;;;;;2.39;100.00;96097.78;5076201;28;20202;-54
2023/12/08 00:31:33;;;;;;;25.30;20.40;;;;;;;2.39;100.00;96104.78;5077071;28;20662;-53
2023/12/08 00:33:59;;;;;;;22.57;19.60;;;;;;;2.43;100.00;96108.84;5077973;28;20213;-53
2023/12/08 00:36:26;;;;;;;26.33;20.90;;;;;;;2.39;100.00;96110.81;5077151;28;20210;-53
2023/12/08 00:38:54;;;;;;;26.00;20.87;;;;;;;2.43;100.00;96103.63;5076282;28;20252;-54
2023/12/08 00:41:20;;;;;;;29.07;21.47;;;;;;;2.39;100.00;96102.16;5075833;28;20214;-53
2023/12/08 00:43:47;;;;;;;26.27;21.87;;;;;;;2.43;100.00;96098.41;5075587;28;20210;-53
2023/12/08 00:46:16;;;;;;;26.30;20.37;;;;;;;2.39;100.00;96091.72;5076306;28;20633;-54
2023/12/08 00:48:44;;;;;;;23.43;20.07;;;;;;;2.44;100.00;96082.63;5078249;28;20666;-54
2023/12/08 00:51:13;;;;;;;25.50;20.07;;;;;;;2.38;100.00;96070.00;5077494;28;20218;-53
2023/12/08 00:53:39;;;;;;;24.27;19.90;;;;;;;2.40;100.00;96067.31;5076752;28;20219;-54
2023/12/08 00:56:07;;;;;;;23.63;20.13;;;;;;;2.35;100.00;96053.75;5077954;28;20616;-54
2023/12/08 00:58:34;;;;;;;26.30;21.30;;;;;;;2.33;100.00;96058.25;5076255;28;20617;-54
2023/12/08 01:01:01;;;;;;;23.70;20.33;;;;;;;2.37;100.00;96077.97;5075210;28;20198;-53
2023/12/08 01:03:28;;;;;;;25.33;21.20;;;;;;;2.34;100.00;96073.78;5074376;28;20271;-54
2023/12/08 01:05:56;;;;;;;26.77;20.70;;;;;;;2.38;100.00;96056.97;5079915;28;20202;-54
2023/12/08 01:08:22;;;;;;;26.90;21.10;;;;;;;2.38;100.00;96074.41;5077645;28;20198;-54
2023/12/08 01:10:49;;;;;;;25.50;20.97;;;;;;;2.42;100.00;96075.84;5074965;28;20312;-54
2023/12/08 01:13:16;;;;;;;26.33;20.83;;;;;;;2.44;100.00;96081.81;5074690;28;20222;-54
2023/12/08 01:15:42;;;;;;;26.17;21.07;;;;;;;2.44;100.00;96087.03;5075087;28;20213;-54
2023/12/08 01:18:09;;;;;;;26.63;21.37;;;;;;;2.39;100.00;96076.91;5075027;28;20202;-54
2023/12/08 01:20:36;;;;;;;26.00;21.17;;;;;;;2.37;100.00;96077.97;5075338;28;20233;-54
2023/12/08 01:23:04;;;;;;;26.47;21.07;;;;;;;2.37;100.00;96070.13;5074284;28;20207;-53
2023/12/08 01:25:30;;;;;;;23.70;20.20;;;;;;;2.39;100.00;96065.63;5074771;28;20203;-54
2023/12/08 01:27:57;;;;;;;25.20;20.47;;;;;;;2.42;100.00;96068.03;5074786;28;20614;-54
2023/12/08 01:30:24;;;;;;;27.43;20.93;;;;;;;2.40;100.00;96062.09;5074644;28;20214;-54
2023/12/08 01:32:50;;;;;;;25.40;19.90;;;;;;;2.30;100.00;96053.25;5074112;28;20231;-53
2023/12/08 01:35:17;;;;;;;25.27;20.60;;;;;;;2.26;100.00;96057.84;5081908;28;20215;-54
2023/12/08 01:37:44;;;;;;;25.40;20.87;;;;;;;2.22;100.00;96052.94;5076087;28;20210;-54
2023/12/08 01:40:12;;;;;;;28.03;21.43;;;;;;;2.21;100.00;96049.50;5075524;28;20213;-54
2023/12/08 01:42:39;;;;;;;24.33;20.33;;;;;;;2.21;100.00;96051.25;5064546;28;20285;-52
2023/12/08 01:45:08;;;;;;;25.10;20.53;;;;;;;2.26;100.00;96070.06;5074329;28;20224;-54
2023/12/08 01:47:35;;;;;;;24.40;20.57;;;;;;;2.30;100.00;96061.88;5068749;28;20593;-53
2023/12/08 01:50:02;;;;;;;23.93;20.23;;;;;;;2.33;100.00;96063.47;5067648;28;20520;-53
2023/12/08 01:52:30;;;;;;;22.33;19.87;;;;;;;2.26;100.00;96057.84;5071166;28;20291;-52
2023/12/08 01:54:59;;;;;;;23.47;19.30;;;;;;;2.28;100.00;96071.59;5074995;28;20293;-52
2023/12/08 01:57:27;;;;;;;26.10;20.43;;;;;;;2.30;100.00;96071.50;5074256;28;20210;-52
2023/12/08 01:59:55;;;;;;;24.80;20.70;;;;;;;2.30;100.00;96082.75;5074513;28;20206;-52
2023/12/08 02:02:22;;;;;;;28.67;21.00;;;;;;;2.26;100.00;96078.72;5073877;28;20252;-54
2023/12/08 02:04:50;;;;;;;25.63;21.00;;;;;;;2.23;100.00;96083.31;5074482;28;20234;-54
2023/12/08 02:07:16;;;;;;;24.30;19.23;;;;;;;2.21;100.00;96087.78;5074521;28;20237;-54
2023/12/08 02:09:43;;;;;;;26.57;20.77;;;;;;;2.25;100.00;96078.81;5073340;28;20649;-53
2023/12/08 02:12:10;;;;;;;25.97;20.60;;;;;;;2.23;100.00;96080.69;5073823;28;20232;-53
2023/12/08 02:14:38;;;;;;;26.87;20.67;;;;;;;2.27;100.00;96087.34;5074204;28;20305;-53
2023/12/08 02:17:12;;;;;;;24.43;20.43;;;;;;;2.23;100.00;96080.69;5079422;28;20216;-54
2023/12/08 02:19:40;;;;;;;24.73;20.17;;;;;;;2.21;100.00;96087.78;5079483;28;20197;-53
2023/12/08 02:22:06;;;;;;;25.07;20.67;;;;;;;2.32;100.00;96099.16;5076081;28;20631;-54
2023/12/08 02:24:34;;;;;;;26.87;21.53;;;;;;;2.26;100.00;96081.31;5076251;28;20206;-54
2023/12/08 02:27:01;;;;;;;25.10;20.20;;;;;;;2.19;100.00;96079.25;5083761;28;20198;-54
2023/12/08 02:29:30;;;;;;;25.90;21.70;;;;;;;2.19;100.00;96074.03;5076856;28;20216;-53
2023/12/08 02:32:00;;;;;;;24.27;20.07;;;;;;;2.19;100.00;96084.47;5073891;28;20249;-54
2023/12/08 02:34:27;;;;;;;23.40;19.07;;;;;;;2.17;100.00;96099.34;5073672;28;20214;-54
2023/12/08 02:36:55;;;;;;;23.60;19.77;;;;;;;2.18;100.00;96101.03;5079845;28;20208;-52
2023/12/08 02:39:22;;;;;;;24.23;19.27;;;;;;;2.19;100.00;96106.16;5075148;28;20214;-53
2023/12/08 02:41:50;;;;;;;22.20;19.07;;;;;;;2.21;100.00;96108.66;5074882;28;20199;-52
2023/12/08 02:44:17;;;;;;;23.60;19.10;;;;;;;2.16;100.00;96106.34;5074871;28;20217;-54
2023/12/08 02:46:43;;;;;;;26.53;21.27;;;;;;;2.13;100.00;96101.34;5078232;28;20202;-53
2023/12/08 02:49:10;;;;;;;25.80;21.03;;;;;;;2.15;100.00;96096.03;5063458;28;20289;-54
2023/12/08 02:51:37;;;;;;;23.80;19.93;;;;;;;2.16;100.00;96113.38;5073616;28;20236;-54
2023/12/08 02:54:03;;;;;;;25.20;21.00;;;;;;;2.17;100.00;96102.81;5073134;28;20297;-53
2023/12/08 02:56:30;;;;;;;26.40;21.23;;;;;;;2.22;100.00;96092.91;5074412;28;20603;-54
2023/12/08 02:58:58;;;;;;;27.70;21.70;;;;;;;2.26;100.00;96091.75;5074594;28;20547;-54
2023/12/08 03:01:25;;;;;;;23.77;20.07;;;;;;;2.23;100.00;96091.13;5077312;28;20230;-53
2023/12/08 03:03:51;;;;;;;25.80;21.43;;;;;;;2.29;100.00;96095.91;5078311;28;20203;-54
2023/12/08 03:06:18;;;;;;;27.40;20.33;;;;;;;2.27;100.00;96103.84;5085323;28;20213;-54
2023/12/08 03:08:44;;;;;;;22.83;19.97;;;;;;;2.27;100.00;96103.00;5080275;28;20297;-54
2023/12/08 03:11:11;;;;;;;24.57;19.90;;;;;;;2.27;100.00;96108.22;5086239;28;20211;-54
2023/12/08 03:13:37;;;;;;;24.20;20.43;;;;;;;2.25;100.00;96099.69;5077821;28;20207;-53
2023/12/08 03:16:07;;;;;;;23.90;20.20;;;;;;;2.26;100.00;96099.59;5078105;28;20283;-54
2023/12/08 03:18:34;;;;;;;25.70;20.67;;;;;;;2.31;100.00;96094.03;5078803;28;20623;-54
2023/12/08 03:21:00;;;;;;;28.50;21.73;;;;;;;2.29;100.00;96095.91;5076717;28;20202;-52
2023/12/08 03:23:27;;;;;;;25.27;20.47;;;;;;;2.30;100.00;96093.19;5076524;28;20301;-54
2023/12/08 03:25:53;;;;;;;24.97;20.77;;;;;;;2.36;100.00;96081.50;5077078;28;20213;-55
2023/12/08 03:28:20;;;;;;;26.20;21.67;;;;;;;2.41;100.00;96089.81;5076654;28;20206;-54
2023/12/08 03:30:46;;;;;;;25.67;21.60;;;;;;;2.48;100.00;96096.28;5077094;28;20209;-54
2023/12/08 03:33:14;;;;;;;25.70;21.40;;;;;;;2.45;100.00;96091.28;5080373;28;20226;-54
2023/12/08 03:35:41;;;;;;;25.47;21.23;;;;;;;2.51;100.00;96106.53;5077822;28;20236;-52
2023/12/08 03:38:07;;;;;;;24.60;20.80;;;;;;;2.56;100.00;96104.44;5076655;28;20207;-53
2023/12/08 03:40:34;;;;;;;26.33;21.13;;;;;;;2.54;100.00;96111.53;5076945;28;20202;-54
2023/12/08 03:43:01;;;;;;;24.50;19.13;;;;;;;2.55;100.00;96113.19;5080532;28;20198;-53
2023/12/08 03:45:28;;;;;;;27.60;21.00;;;;;;;2.52;100.00;96123.84;5079173;28;20198;-53
2023/12/08 03:47:54;;;;;;;27.57;21.63;;;;;;;2.54;100.00;96121.97;5075919;28;20236;-53
2023/12/08 03:50:22;;;;;;;23.90;19.53;;;;;;;2.61;100.00;96128.44;5078507;28;20520;-53
2023/12/08 03:52:52;;;;;;;24.83;20.43;;;;;;;2.59;100.00;96119.88;5079113;28;20225;-54
2023/12/08 03:55:19;;;;;;;27.03;21.03;;;;;;;2.73;100.00;96122.34;5078134;28;20642;-53
2023/12/08 03:57:47;;;;;;;27.17;21.67;;;;;;;2.63;100.00;96125.69;5072594;28;20199;-53
2023/12/08 04:00:14;;;;;;;23.70;19.83;;;;;;;2.68;100.00;96140.13;5073765;28;20232;-54
2023/12/08 04:02:41;;;;;;;24.53;20.23;;;;;;;2.63;100.00;96131.75;5076121;28;20237;-52
2023/12/08 04:05:10;;;;;;;22.67;18.77;;;;;;;2.67;100.00;96137.59;5081025;28;20598;-52
2023/12/08 04:07:39;;;;;;;19.10;16.30;;;;;;;2.76;100.00;96122.16;5079549;28;20206;-52
2023/12/08 04:10:06;;;;;;;10.13;9.13;;;;;;;2.99;100.00;96134.38;5077717;28;20202;-54
2023/12/08 04:12:33;;;;;;;8.63;7.10;;;;;;;3.27;100.00;96143.69;5077893;28;20309;-53
2023/12/08 04:15:00;;;;;;;7.03;6.33;;;;;;;3.59;100.00;96128.28;5081249;28;20206;-53
2023/12/08 04:17:26;;;;;;;7.03;5.80;;;;;;;3.80;100.00;96141.53;5087299;28;20199;-54
2023/12/08 04:19:53;;;;;;;6.60;6.00;;;;;;;3.99;100.00;96152.31;5085324;28;20701;-59
2023/12/08 04:22:20;;;;;;;7.90;6.30;;;;;;;4.30;98.00;96150.81;5076257;28;20195;-53
2023/12/08 04:24:50;;;;;;;6.67;5.80;;;;;;;4.42;97.38;96160.34;5076562;28;20214;-54
2023/12/08 04:27:16;;;;;;;6.73;6.07;;;;;;;4.62;94.86;96170.13;5081879;28;20280;-54
2023/12/08 04:29:43;;;;;;;6.83;6.10;;;;;;;4.75;93.06;96168.22;5080877;28;20292;-54
2023/12/08 04:32:09;;;;;;;7.53;6.00;;;;;;;4.77;95.35;96161.09;5084983;28;20222;-54
2023/12/08 04:34:36;;;;;;;7.33;6.63;;;;;;;4.78;94.64;96170.59;5075575;28;20293;-54
2023/12/08 04:37:04;;;;;;;6.27;5.67;;;;;;;4.77;97.60;96176.81;5076522;28;20213;-53
2023/12/08 04:39:30;;;;;;;7.53;6.60;;;;;;;4.76;96.82;96175.13;5078060;28;20199;-52
2023/12/08 04:41:58;;;;;;;7.50;6.73;;;;;;;4.84;95.51;96171.91;5082301;28;20203;-52
2023/12/08 04:44:25;;;;;;;8.10;7.33;;;;;;;4.77;98.77;96179.41;5080745;28;20626;-53
2023/12/08 04:46:54;;;;;;;7.97;7.27;;;;;;;4.78;98.84;96175.81;5075812;28;20232;-54
2023/12/08 04:49:20;;;;;;;9.20;8.30;;;;;;;4.82;99.27;96179.88;5075477;28;20199;-53
2023/12/08 04:51:47;;;;;;;10.77;8.33;;;;;;;4.78;100.00;96172.41;5074898;28;20203;-54
2023/12/08 04:54:14;;;;;;;8.57;7.73;;;;;;;4.77;100.00;96183.81;5073655;28;20233;-54
2023/12/08 04:56:40;;;;;;;8.67;7.77;;;;;;;4.68;100.00;96182.72;5074982;28;20623;-53
2023/12/08 04:59:10;;;;;;;10.07;7.97;;;;;;;4.66;100.00;96178.56;5074836;28;20310;-54
2023/12/08 05:01:36;;;;;;;10.37;8.93;;;;;;;4.57;100.00;96174.88;5074624;28;20269;-53
2023/12/08 05:04:04;;;;;;;9.50;8.50;;;;;;;4.61;100.00;96173.69;5074855;28;20212;-54
2023/12/08 05:06:30;;;;;;;10.43;9.20;;;;;;;4.66;100.00;96168.94;5075190;28;20206;-53
2023/12/08 05:08:57;;;;;;;10.30;9.17;;;;;;;4.67;100.00;96164.53;5074843;28;20209;-54
2023/12/08 05:11:24;;;;;;;10.10;9.13;;;;;;;4.65;100.00;96155.94;5075171;28;20213;-54
2023/12/08 05:13:50;;;;;;;9.27;8.47;;;;;;;4.56;100.00;96165.38;5074794;28;20526;-53
2023/12/08 05:16:18;;;;;;;10.60;9.50;;;;;;;4.63;100.00;96160.47;5074791;28;20551;-53
2023/12/08 05:18:46;;;;;;;9.80;8.80;;;;;;;4.63;100.00;96169.19;5071631;28;20208;-53
2023/12/08 05:21:13;;;;;;;9.80;8.80;;;;;;;4.61;100.00;96171.06;5073624;28;20207;-52
2023/12/08 05:23:39;;;;;;;10.30;9.20;;;;;;;4.60;100.00;96164.19;5074540;28;20202;-52
2023/12/08 05:26:07;;;;;;;9.07;8.07;;;;;;;4.56;100.00;96167.97;5074601;28;20274;-53
2023/12/08 05:28:34;;;;;;;10.60;9.50;;;;;;;4.60;100.00;96172.03;5073749;28;20230;-52
2023/12/08 05:31:01;;;;;;;10.43;9.23;;;;;;;4.58;100.00;96179.16;5074485;28;20647;-53
2023/12/08 05:33:29;;;;;;;10.63;8.50;;;;;;;4.56;100.00;96178.47;5074631;28;20240;-54
2023/12/08 05:35:55;;;;;;;9.37;8.47;;;;;;;4.51;100.00;96177.97;5074158;28;20305;-53
2023/12/08 05:38:22;;;;;;;8.97;8.13;;;;;;;4.48;100.00;96178.19;5074149;28;20263;-54
2023/12/08 05:40:48;;;;;;;8.87;7.97;;;;;;;4.52;100.00;96177.03;5074524;28;20206;-53
2023/12/08 05:43:15;;;;;;;11.13;8.93;;;;;;;4.42;100.00;96171.66;5074746;28;20226;-52
2023/12/08 05:45:42;;;;;;;10.60;8.90;;;;;;;4.41;100.00;96171.75;5076480;28;20297;-52
2023/12/08 05:48:08;;;;;;;11.03;8.77;;;;;;;4.34;100.00;96173.19;5073884;28;20205;-54
2023/12/08 05:50:36;;;;;;;9.73;8.83;;;;;;;4.38;100.00;96180.69;5074149;28;20217;-53
2023/12/08 05:53:03;;;;;;;9.43;8.43;;;;;;;4.44;100.00;96171.53;5073980;28;20229;-54
2023/12/08 05:55:29;;;;;;;8.83;7.93;;;;;;;4.43;100.00;96177.69;5074175;28;20202;-54
2023/12/08 05:57:56;;;;;;;9.83;8.23;;;;;;;4.43;100.00;96173.31;5075162;28;20220;-52
2023/12/08 06:00:22;;;;;;;8.90;7.97;;;;;;;4.39;100.00;96168.44;5074314;28;20212;-53
2023/12/08 06:02:49;;;;;;;9.13;8.23;;;;;;;4.39;100.00;96171.06;5074108;28;20234;-52
2023/12/08 06:05:16;;;;;;;8.50;7.60;;;;;;;4.33;100.00;96163.66;5075435;28;20206;-53
2023/12/08 06:07:43;;;;;;;8.43;7.53;;;;;;;4.33;100.00;96166.28;5075337;28;20198;-53
2023/12/08 06:10:11;;;;;;;9.13;7.63;;;;;;;4.35;100.00;96160.00;5075714;28;20210;-51
2023/12/08 06:12:38;;;;;;;9.60;8.20;;;;;;;4.28;100.00;96171.03;5074875;28;20727;-52
2023/12/08 06:15:06;;;;;;;9.53;8.23;;;;;;;4.29;100.00;96172.69;5074253;28;20523;-54
2023/12/08 06:17:33;;;;;;;8.80;7.90;;;;;;;4.24;100.00;96172.22;5074159;28;20372;-52
2023/12/08 06:19:59;;;;;;;8.53;7.70;;;;;;;4.27;100.00;96177.22;5074056;28;20212;-52
2023/12/08 06:22:26;;;;;;;10.10;7.87;;;;;;;4.24;100.00;96174.84;5073613;28;20297;-53
2023/12/08 06:24:54;;;;;;;8.97;7.83;;;;;;;4.23;100.00;96170.53;5073820;28;20210;-53
2023/12/08 06:27:21;;;;;;;8.53;7.73;;;;;;;4.22;100.00;96174.94;5073711;28;20212;-53
2023/12/08 06:29:50;;;;;;;9.73;8.67;;;;;;;4.22;100.00;96174.94;5073466;28;20657;-52
2023/12/08 06:32:18;;;;;;;9.67;8.77;;;;;;;4.20;100.00;96165.53;5074226;28;20646;-53
2023/12/08 06:34:45;;;;;;;8.83;7.93;;;;;;;4.18;100.00;96172.69;5075677;28;20210;-54
2023/12/08 06:37:12;;;;;;;10.67;8.87;;;;;;;4.08;100.00;96164.69;5078150;28;20574;-52
2023/12/08 06:39:39;;;;;;;10.33;9.17;;;;;;;4.06;100.00;96168.38;5076917;28;20206;-54
2023/12/08 06:42:07;;;;;;;9.37;8.40;;;;;;;3.99;100.00;96163.59;5078148;28;20212;-52
2023/12/08 06:44:34;;;;;;;9.23;8.33;;;;;;;4.03;100.00;96172.06;5078257;28;20599;-51
2023/12/08 06:47:00;;;;;;;9.90;8.87;;;;;;;3.95;100.00;96164.78;5076081;28;20206;-53
2023/12/08 06:49:27;;;;;;;13.30;8.70;;;;;;;3.87;100.00;96163.66;5076589;28;20291;-52
2023/12/08 06:51:53;;;;;;;11.13;8.73;;;;;;;3.83;100.00;96160.44;5077833;28;20209;-54
2023/12/08 06:54:20;;;;;;;9.10;8.20;;;;;;;3.89;100.00;96173.09;5077259;28;20227;-53
2023/12/08 06:56:47;;;;;;;9.03;8.13;;;;;;;3.80;100.00;96173.75;5077409;28;20217;-52
2023/12/08 06:59:15;;;;;;;10.27;8.63;;;;;;;3.82;100.00;96171.88;5077280;28;20217;-53
2023/12/08 07:01:42;;;;;;;10.63;9.00;;;;;;;3.85;100.00;96161.19;5078951;28;20569;-53
2023/12/08 07:04:09;;;;;;;9.23;8.20;;;;;;;3.88;100.00;96160.94;5080776;28;20194;-54
2023/12/08 07:06:36;;;;;;;9.40;8.30;;;;;;;3.88;100.00;96166.19;5082276;28;20631;-53
2023/12/08 07:09:03;;;;;;;10.30;8.60;;;;;;;3.92;100.00;96162.38;5079842;28;20300;-52
2023/12/08 07:11:35;;;;;;;10.60;8.83;;;;;;;3.94;100.00;96170.09;5082248;28;20550;-52
2023/12/08 07:14:01;;;;;;;10.20;8.13;;;;;;;3.98;100.00;96171.56;5069148;28;20217;-53
2023/12/08 07:16:29;;;;;;;9.50;7.97;;;;;;;3.94;100.00;96168.31;5077430;28;20203;-53
2023/12/08 07:18:57;;;;;;;10.47;9.27;;;;;;;3.92;100.00;96165.00;5076636;28;20206;-54
2023/12/08 07:21:24;;;;;;;10.47;9.40;;;;;;;3.99;100.00;96168.84;5077563;28;20202;-52
2023/12/08 07:23:51;;;;;;;15.20;9.63;;;;;;;4.07;100.00;96159.56;5076825;28;20209;-54
2023/12/08 07:26:18;;;;;;;12.20;9.40;;;;;;;4.07;100.00;96156.97;5077506;28;20305;-51
2023/12/08 07:28:47;;;;;;;11.03;9.57;;;;;;;4.10;100.00;96162.78;5076912;28;20202;-59
2023/12/08 07:31:14;;;;;;;10.83;9.17;;;;;;;4.09;100.00;96157.66;5080104;28;20627;-53
2023/12/08 07:33:42;;;;;;;10.20;9.10;;;;;;;4.14;100.00;96163.41;5093687;28;20317;-52
2023/12/08 07:36:09;;;;;;;10.57;9.43;;;;;;;4.09;100.00;96168.13;5088093;28;20293;-54
2023/12/08 07:38:36;;;;;;;8.30;7.50;;;;;;;4.12;100.00;96162.66;5081236;28;20292;-54
2023/12/08 07:41:04;;;;;;;10.40;7.57;;;;;;;4.14;100.00;96156.38;5085566;28;20694;-54
2023/12/08 07:43:30;;;;;;;8.03;6.60;;;;;;;4.16;100.00;96156.25;5077021;28;20195;-52
2023/12/08 07:45:57;;;;;;;7.93;7.13;;;;;;;4.20;100.00;96170.78;5076607;28;20203;-54
2023/12/08 07:48:23;;;;;;;8.40;7.60;;;;;;;4.15;100.00;96165.03;5068418;28;20198;-55
2023/12/08 07:50:53;;;;;;;9.83;8.27;;;;;;;4.17;100.00;96160.53;5078340;28;20267;-55
2023/12/08 07:53:19;;;;;;;11.63;10.03;;;;;;;4.20;100.00;96160.31;5076505;28;20313;-53
2023/12/08 07:55:46;;;;;;;11.13;8.77;;;;;;;4.23;100.00;96157.47;5080071;28;20229;-52
2023/12/08 07:58:14;;;;;;;11.33;7.87;;;;;;;4.24;100.00;96156.50;5077378;28;20298;-53
2023/12/08 08:00:43;;;;;;;8.30;7.50;;;;;;;4.26;100.00;96163.28;5076734;28;20206;-55
2023/12/08 08:03:11;;;;;;;8.00;6.97;;;;;;;4.29;100.00;96162.22;5078608;28;20708;-54
2023/12/08 08:05:38;;;;;;;7.23;6.50;;;;;;;4.26;100.00;96160.66;5076889;28;20541;-53
2023/12/08 08:08:06;;;;;;;6.70;6.10;;;;;;;4.29;100.00;96172.69;5075774;28;20649;-54
2023/12/08 08:10:33;;;;;;;6.00;5.43;;;;;;;4.25;100.00;96168.66;5076608;28;20293;-54
2023/12/08 08:13:03;;;;;;;8.27;6.27;;;;;;;4.20;100.00;96168.16;5079357;28;20218;-53
2023/12/08 08:15:29;;;;;;;6.40;5.80;;;;;;;4.20;100.00;96166.38;5081278;28;20722;-55
2023/12/08 08:17:56;;;;;;;6.87;5.50;;;;;;;4.20;100.00;96170.78;5078250;28;20328;-57
2023/12/08 08:20:24;;;;;;;5.80;5.20;;;;;;;4.20;100.00;96176.84;5079531;28;20580;-53
2023/12/08 08:22:51;;;;;;;6.53;5.60;;;;;;;4.23;100.00;96166.16;5079137;28;20298;-56
2023/12/08 08:25:19;;;;;;;5.97;5.27;;;;;;;4.24;100.00;96172.22;5078404;28;20211;-53
2023/12/08 08:27:45;;;;;;;5.63;4.97;;;;;;;4.29;100.00;96160.44;5077928;28;20226;-52
2023/12/08 08:30:14;;;;;;;5.60;5.10;;;;;;;4.28;100.00;96158.78;5078678;28;20299;-55
2023/12/08 08:32:42;;;;;;;5.57;4.70;;;;;;;4.28;100.00;96164.03;5079857;28;20202;-54
2023/12/08 08:35:09;;;;;;;6.63;4.90;;;;;;;4.28;100.00;96165.81;5079780;28;20248;-54
2023/12/08 08:37:35;;;;;;;6.20;4.97;;;;;;;4.29;100.00;96170.06;5081049;28;20221;-53
2023/12/08 08:40:05;;;;;;;6.77;5.00;;;;;;;4.31;100.00;96169.03;5077386;28;20297;-53
2023/12/08 08:42:33;;;;;;;6.43;5.03;;;;;;;4.29;100.00;96170.91;5075700;28;20683;-53
2023/12/08 08:45:02;;;;;;;5.20;4.70;;;;;;;4.34;100.00;96173.19;5078491;28;20194;-55
2023/12/08 08:47:29;;;;;;;6.10;5.50;;;;;;;4.42;100.00;96181.28;5072999;28;20238;-53
2023/12/08 08:49:57;;;;;;;10.20;8.10;;;;;;;4.44;100.00;96180.22;5076229;28;20645;-55
2023/12/08 08:52:23;;;;;;;7.27;6.57;;;;;;;4.53;100.00;96186.56;5075086;28;20298;-52
2023/12/08 08:54:50;;;;;;;5.07;4.60;;;;;;;4.59;100.00;96172.13;5075871;28;20687;-59
2023/12/08 08:57:17;;;;;;;5.23;4.53;;;;;;;4.62;100.00;96170.13;5075644;28;20206;-53
2023/12/08 08:59:45;;;;;;;4.30;3.93;;;;;;;4.68;100.00;96164.41;5082743;28;20591;-55
2023/12/08 09:02:12;;;;;;;4.20;3.80;;;;;;;4.80;100.00;96165.25;5088495;28;20290;-56
2023/12/08 09:04:38;;;;;;;3.93;3.57;;;;;;;4.86;100.00;96173.44;5088679;28;20226;-55
2023/12/08 09:07:05;;;;;;;4.57;4.00;;;;;;;4.90;100.00;96174.03;5088972;28;20245;-55
2023/12/08 09:09:32;;;;;;;3.87;3.57;;;;;;;4.93;100.00;96172.03;5088591;28;20214;-55
2023/12/08 09:11:58;;;;;;;4.20;3.90;;;;;;;4.92;100.00;96170.34;5089629;28;20262;-54
2023/12/08 09:14:27;;;;;;;6.63;4.20;;;;;;;4.94;100.00;96163.22;5089539;28;20306;-56
2023/12/08 09:16:55;;;;;;;4.50;4.17;;;;;;;4.91;100.00;96158.22;5088460;28;20207;-55
2023/12/08 09:19:22;;;;;;;4.20;3.90;;;;;;;4.96;100.00;96156.06;5088154;28;20232;-55
2023/12/08 09:21:48;;;;;;;4.50;4.10;;;;;;;4.99;100.00;96161.03;5088558;28;20261;-55
2023/12/08 09:24:16;;;;;;;4.17;3.87;;;;;;;4.98;100.00;96163.81;5096270;28;20228;-53
2023/12/08 09:26:43;;;;;;;4.67;3.80;;;;;;;5.01;100.00;96164.41;5092995;28;20206;-54
2023/12/08 09:29:09;;;;;;;6.97;5.70;;;;;;;5.06;100.00;96171.06;5084940;28;20219;-55
2023/12/08 09:31:38;;;;;;;6.70;6.10;;;;;;;5.05;100.00;96164.16;5098221;28;20213;-54
2023/12/08 09:34:05;;;;;;;6.27;5.30;;;;;;;5.06;100.00;96171.91;5082236;28;20420;-53
2023/12/08 09:36:33;;;;;;;6.43;5.70;;;;;;;5.02;100.00;96165.22;5076525;28;20217;-56
2023/12/08 09:39:00;;;;;;;6.17;5.57;;;;;;;5.10;100.00;96167.25;5075009;28;20210;-52
2023/12/08 09:41:30;;;;;;;6.73;6.03;;;;;;;5.09;100.00;96166.41;5074790;28;20292;-53
2023/12/08 09:44:00;;;;;;;6.20;5.33;;;;;;;5.15;100.00;96167.69;5075794;28;20655;-53
2023/12/08 09:46:28;;;;;;;7.17;6.47;;;;;;;5.21;100.00;96172.47;5074755;28;20213;-53
2023/12/08 09:48:58;;;;;;;7.00;6.30;;;;;;;5.19;100.00;96171.75;5061677;28;20229;-53
2023/12/08 09:51:27;;;;;;;7.40;6.70;;;;;;;5.25;100.00;96168.63;5075883;28;20224;-54
2023/12/08 09:53:53;;;;;;;8.73;7.83;;;;;;;5.27;100.00;96174.59;5076610;28;20240;-56
2023/12/08 09:56:21;;;;;;;8.97;7.63;;;;;;;5.26;100.00;96162.44;5097297;28;20197;-54
2023/12/08 09:58:47;;;;;;;9.27;8.37;;;;;;;5.29;100.00;96168.28;5097021;28;20213;-53
2023/12/08 10:01:16;;;;;;;9.57;8.60;;;;;;;5.30;100.00;96163.88;5096940;28;20235;-55
2023/12/08 10:03:44;;;;;;;8.73;7.93;;;;;;;5.29;100.00;96163.03;5097932;28;20352;-54
2023/12/08 10:06:11;;;;;;;9.93;8.10;;;;;;;5.31;100.00;96160.31;5097488;28;20186;-55
2023/12/08 10:08:39;;;;;;;10.27;8.73;;;;;;;5.29;100.00;96159.56;5096650;28;20186;-56
2023/12/08 10:11:08;;;;;;;10.80;8.30;;;;;;;5.29;100.00;96156.97;5098695;28;20201;-55
2023/12/08 10:13:34;;;;;;;9.83;7.97;;;;;;;5.28;100.00;96140.38;5077233;28;20275;-55
2023/12/08 10:16:01;;;;;;;9.60;7.70;;;;;;;5.34;100.00;96150.41;5076153;28;20286;-55
2023/12/08 10:18:28;;;;;;;8.83;7.67;;;;;;;5.35;100.00;96148.63;5078821;28;20285;-55
2023/12/08 10:21:14;;;;;;;9.00;8.03;;;;;;;5.36;100.00;96152.88;5095139;28;20241;-55
2023/12/08 10:23:42;;;;;;;10.30;8.30;;;;;;;5.44;100.00;96147.88;5084283;28;20194;-54
2023/12/08 10:26:09;;;;;;;8.80;7.83;;;;;;;5.45;100.00;96157.41;5088137;28;20233;-53
2023/12/08 10:28:36;;;;;;;9.33;8.17;;;;;;;5.52;100.00;96153.34;5090357;28;20214;-56
2023/12/08 10:31:04;;;;;;;8.93;8.13;;;;;;;5.49;100.00;96149.16;5084771;28;20277;-55
2023/12/08 10:33:31;;;;;;;9.80;8.60;;;;;;;5.49;100.00;96137.84;5078416;28;20203;-53
2023/12/08 10:35:57;;;;;;;9.03;8.20;;;;;;;5.46;100.00;96138.91;5094118;28;20308;-56
2023/12/08 10:38:24;;;;;;;9.23;8.20;;;;;;;5.45;100.00;96137.28;5089846;28;20213;-53
2023/12/08 10:40:53;;;;;;;9.40;7.70;;;;;;;5.46;100.00;96132.84;5076867;28;20289;-53
2023/12/08 10:43:25;;;;;;;7.53;6.83;;;;;;;5.44;100.00;96140.00;5076906;28;20244;-51
2023/12/08 10:45:54;;;;;;;8.23;6.57;;;;;;;5.44;100.00;96151.31;5074686;28;20289;-54
2023/12/08 10:48:23;;;;;;;6.93;6.23;;;;;;;5.46;100.00;96132.84;5063548;28;20227;-52
2023/12/08 10:50:52;;;;;;;7.87;6.80;;;;;;;5.46;100.00;96132.84;5075060;28;20205;-53
2023/12/08 10:53:19;;;;;;;7.73;6.83;;;;;;;5.46;100.00;96132.84;5068092;28;20285;-54
2023/12/08 10:55:54;;;;;;;6.53;5.87;;;;;;;5.43;100.00;96136.53;5073158;28;20234;-54
2023/12/08 10:58:25;;;;;;;6.67;5.83;;;;;;;5.45;100.00;96126.78;5076444;28;20202;-53
2023/12/08 11:00:52;;;;;;;6.27;5.67;;;;;;;5.53;100.00;96122.69;5088102;28;20194;-53
2023/12/08 11:03:22;;;;;;;6.90;6.20;;;;;;;5.52;100.00;96121.88;5079778;28;20325;-55
2023/12/08 11:05:56;;;;;;;8.50;6.27;;;;;;;5.53;100.00;96118.25;5076665;28;20207;-52
2023/12/08 11:08:23;;;;;;;7.83;6.90;;;;;;;5.58;100.00;96117.91;5074180;28;20217;-55
2023/12/08 11:10:53;;;;;;;8.27;6.93;;;;;;;5.66;100.00;96116.31;5074836;28;20201;-57
2023/12/08 11:13:26;;;;;;;7.37;6.67;;;;;;;5.65;100.00;96122.53;5077279;28;20512;-58
2023/12/08 11:16:06;;;;;;;9.10;6.80;;;;;;;5.66;100.00;96118.09;5074765;28;20222;-59
2023/12/08 11:18:35;;;;;;;7.73;6.83;;;;;;;5.64;100.00;96118.22;5072835;28;20265;-56
2023/12/08 11:21:06;;;;;;;8.53;7.57;;;;;;;5.66;100.00;96118.94;5077281;28;20209;-55
2023/12/08 11:23:33;;;;;;;7.70;6.90;;;;;;;5.69;100.00;96113.44;5078579;28;20222;-56
2023/12/08 11:26:06;;;;;;;7.70;6.90;;;;;;;5.64;100.00;96117.38;5078217;28;20190;-58
2023/12/08 11:28:36;;;;;;;7.47;6.87;;;;;;;5.71;100.00;96123.78;5078001;28;20285;-55